createdAt,value
2019-05-20T00:00:56.840Z,99725.05
2019-05-20T00:03:04.303Z,99724.91
2019-05-20T00:05:12.039Z,99733.73
2019-05-20T00:07:19.487Z,99731.50
2019-05-20T00:09:26.996Z,99731.14
2019-05-20T00:11:34.477Z,99734.87
2019-05-20T00:13:41.984Z,99731.14
2019-05-20T00:15:49.383Z,99741.39
2019-05-20T00:17:57.089Z,99736.42
2019-05-20T00:20:04.827Z,99726.86
2019-05-20T00:22:12.345Z,99730.39
2019-05-20T00:24:19.729Z,99735.28
2019-05-20T00:26:27.185Z,99736.35
2019-05-20T00:28:34.616Z,99733.58
2019-05-20T00:30:42.064Z,99732.12
2019-05-20T00:32:49.475Z,99741.58
2019-05-20T00:34:56.950Z,99740.88
2019-05-20T00:37:04.419Z,99730.55
2019-05-20T00:39:30.060Z,99724.63
2019-05-20T00:41:37.587Z,99717.07
2019-05-20T00:43:45.103Z,99711.43
2019-05-20T00:45:52.513Z,99714.36
2019-05-20T00:47:59.943Z,99718.58
2019-05-20T00:50:08.207Z,99722.84
2019-05-20T00:52:15.641Z,99716.06
2019-05-20T00:54:23.274Z,99718.92
2019-05-20T00:56:30.934Z,99717.78
2019-05-20T00:58:38.352Z,99718.85
2019-05-20T01:00:45.945Z,99715.78
2019-05-20T01:02:56.993Z,99716.04
2019-05-20T01:05:04.217Z,99713.38
2019-05-20T01:07:11.620Z,99712.19
2019-05-20T01:09:19.164Z,99714.08
2019-05-20T01:11:27.418Z,99722.91
2019-05-20T01:13:35.015Z,99724.66
2019-05-20T01:15:42.523Z,99722.98
2019-05-20T01:17:50.039Z,99716.33
2019-05-20T01:19:57.529Z,99709.47
2019-05-20T01:22:05.160Z,99706.30
2019-05-20T01:24:12.621Z,99693.88
2019-05-20T01:26:20.028Z,99695.45
2019-05-20T01:28:27.454Z,99697.41
2019-05-20T01:30:34.882Z,99690.32
2019-05-20T01:32:42.454Z,99691.84
2019-05-20T01:34:49.862Z,99689.84
2019-05-20T01:36:57.412Z,99690.88
2019-05-20T01:39:05.752Z,99680.85
2019-05-20T01:41:13.184Z,99679.03
2019-05-20T01:43:20.587Z,99685.14
2019-05-20T01:45:27.959Z,99680.14
2019-05-20T01:47:35.361Z,99675.45
2019-05-20T01:49:42.946Z,99674.67
2019-05-20T01:51:50.443Z,99670.34
2019-05-20T01:53:57.928Z,99662.42
2019-05-20T01:56:05.390Z,99669.01
2019-05-20T01:58:12.904Z,99662.35
2019-05-20T02:00:22.245Z,99663.48
2019-05-20T02:02:29.626Z,99656.66
2019-05-20T02:04:37.272Z,99656.17
2019-05-20T02:06:44.737Z,99653.17
2019-05-20T02:08:52.144Z,99651.69
2019-05-20T02:10:59.531Z,99644.38
2019-05-20T02:13:07.130Z,99646.83
2019-05-20T02:15:25.650Z,99648.10
2019-05-20T02:17:33.056Z,99651.31
2019-05-20T02:19:40.493Z,99644.61
2019-05-20T02:21:47.901Z,99640.25
2019-05-20T02:23:55.298Z,99637.88
2019-05-20T02:26:02.708Z,99640.09
2019-05-20T02:28:10.187Z,99644.63
2019-05-20T02:30:18.272Z,99637.98
2019-05-20T02:32:25.685Z,99642.13
2019-05-20T02:34:33.068Z,99644.45
2019-05-20T02:36:40.618Z,99648.49
2019-05-20T02:38:48.058Z,99642.25
2019-05-20T02:40:55.456Z,99640.97
2019-05-20T02:43:03.318Z,99635.97
2019-05-20T02:45:11.509Z,99638.13
2019-05-20T02:47:18.977Z,99638.06
2019-05-20T02:49:26.410Z,99628.41
2019-05-20T02:51:33.855Z,99630.94
2019-05-20T02:53:41.407Z,99625.48
2019-05-20T02:55:48.970Z,99623.36
2019-05-20T02:57:56.412Z,99620.52
2019-05-20T03:00:03.961Z,99626.94
2019-05-20T03:02:11.405Z,99625.74
2019-05-20T03:04:18.892Z,99624.57
2019-05-20T03:06:26.277Z,99634.72
2019-05-20T03:08:33.747Z,99627.41
2019-05-20T03:10:41.256Z,99628.98
2019-05-20T03:12:48.679Z,99624.83
2019-05-20T03:14:56.184Z,99636.02
2019-05-20T03:17:03.714Z,99637.46
2019-05-20T03:19:11.240Z,99627.49
2019-05-20T03:21:18.916Z,99631.32
2019-05-20T03:23:26.342Z,99628.98
2019-05-20T03:25:33.861Z,99625.82
2019-05-20T03:27:41.440Z,99626.23
2019-05-20T03:29:49.037Z,99618.38
2019-05-20T03:31:56.530Z,99614.83
2019-05-20T03:34:03.959Z,99600.96
2019-05-20T03:36:11.796Z,99616.70
2019-05-20T03:38:19.268Z,99616.86
2019-05-20T03:40:26.823Z,99611.13
2019-05-20T03:42:34.275Z,99611.05
2019-05-20T03:44:41.771Z,99608.72
2019-05-20T03:46:49.334Z,99615.53
2019-05-20T03:48:56.823Z,99618.11
2019-05-20T03:51:04.380Z,99609.16
2019-05-20T03:53:11.836Z,99610.06
2019-05-20T03:55:19.245Z,99599.22
2019-05-20T03:57:26.648Z,99605.88
2019-05-20T03:59:34.086Z,99606.14
2019-05-20T04:01:41.549Z,99598.14
2019-05-20T04:03:48.982Z,99604.61
2019-05-20T04:05:56.459Z,99604.89
2019-05-20T04:08:03.821Z,99605.98
2019-05-20T04:10:11.529Z,99604.09
2019-05-20T04:12:19.113Z,99605.78
2019-05-20T04:14:26.810Z,99607.66
2019-05-20T04:16:34.413Z,99605.26
2019-05-20T04:18:41.969Z,99609.48
2019-05-20T04:20:49.449Z,99600.92
2019-05-20T04:22:56.966Z,99599.46
2019-05-20T04:25:04.984Z,99605.86
2019-05-20T04:27:12.593Z,99606.52
2019-05-20T04:29:20.235Z,99605.31
2019-05-20T04:31:27.761Z,99596.35
2019-05-20T04:33:35.413Z,99593.58
2019-05-20T04:35:43.100Z,99592.88
2019-05-20T04:37:51.142Z,99590.07
2019-05-20T04:39:58.971Z,99588.23
2019-05-20T04:42:07.435Z,99591.30
2019-05-20T04:44:14.995Z,99593.38
2019-05-20T04:46:22.596Z,99586.41
2019-05-20T04:48:30.049Z,99588.60
2019-05-20T04:50:37.582Z,99589.85
2019-05-20T04:52:45.051Z,99589.63
2019-05-20T04:54:52.514Z,99583.70
2019-05-20T04:57:00.005Z,99592.78
2019-05-20T04:59:07.667Z,99595.26
2019-05-20T05:01:15.226Z,99590.81
2019-05-20T05:03:22.981Z,99593.06
2019-05-20T05:05:37.815Z,99594.91
2019-05-20T05:07:39.921Z,99585.62
2019-05-20T05:09:47.502Z,99586.08
2019-05-20T05:11:55.467Z,99594.78
2019-05-20T05:14:03.199Z,99589.80
2019-05-20T05:16:11.202Z,99585.84
2019-05-20T05:18:19.040Z,99583.88
2019-05-20T05:20:26.738Z,99584.53
2019-05-20T05:22:34.325Z,99586.12
2019-05-20T05:24:41.891Z,99591.70
2019-05-20T05:26:49.483Z,99590.96
2019-05-20T05:28:56.970Z,99582.81
2019-05-20T05:31:04.527Z,99578.16
2019-05-20T05:33:12.071Z,99578.24
2019-05-20T05:35:20.675Z,99580.38
2019-05-20T05:37:28.000Z,99577.70
2019-05-20T05:39:35.463Z,99568.47
2019-05-20T05:41:43.015Z,99566.70
2019-05-20T05:43:50.505Z,99560.20
2019-05-20T05:45:58.022Z,99556.05
2019-05-20T05:48:05.764Z,99550.80
2019-05-20T05:50:13.722Z,99544.27
2019-05-20T05:52:22.995Z,99539.19
2019-05-20T05:54:30.745Z,99538.89
2019-05-20T05:56:38.578Z,99528.61
2019-05-20T05:58:46.025Z,99523.25
2019-05-20T06:00:53.637Z,99520.30
2019-05-20T06:03:01.270Z,99528.34
2019-05-20T06:05:09.231Z,99520.69
2019-05-20T06:07:16.865Z,99525.90
2019-05-20T06:09:24.345Z,99522.08
2019-05-20T06:13:45.074Z,99516.74
2019-05-20T06:15:54.578Z,99512.03
2019-05-20T06:18:01.785Z,99510.77
2019-05-20T06:20:11.861Z,99508.41
2019-05-20T06:22:19.720Z,99503.56
2019-05-20T06:24:27.236Z,99515.61
2019-05-20T06:26:35.071Z,99511.92
2019-05-20T06:28:42.550Z,99518.09
2019-05-20T06:30:51.056Z,99520.64
2019-05-20T06:32:58.509Z,99527.52
2019-05-20T06:35:07.013Z,99525.54
2019-05-20T06:37:16.564Z,99528.73
2019-05-20T06:39:23.958Z,99525.03
2019-05-20T06:41:31.371Z,99518.22
2019-05-20T06:43:39.169Z,99514.73
2019-05-20T06:45:46.838Z,99514.59
2019-05-20T06:47:54.292Z,99509.20
2019-05-20T06:50:01.796Z,99507.38
2019-05-20T06:52:09.358Z,99504.34
2019-05-20T06:54:16.839Z,99509.89
2019-05-20T06:56:24.310Z,99501.84
2019-05-20T06:58:31.781Z,99516.38
2019-05-20T07:00:41.121Z,99513.73
2019-05-20T07:02:51.603Z,99519.92
2019-05-20T07:04:57.769Z,99520.59
2019-05-20T07:07:19.944Z,99510.22
2019-05-20T07:09:14.424Z,99517.91
2019-05-20T07:11:21.948Z,99519.25
2019-05-20T07:13:29.500Z,99521.11
2019-05-20T07:15:37.107Z,99512.87
2019-05-20T07:17:44.925Z,99513.03
2019-05-20T07:20:00.301Z,99512.22
2019-05-20T07:22:12.493Z,99520.23
2019-05-20T07:24:20.026Z,99517.24
2019-05-20T07:26:27.555Z,99518.08
2019-05-20T07:28:35.042Z,99531.15
2019-05-20T07:30:42.658Z,99519.41
2019-05-20T07:32:50.284Z,99517.91
2019-05-20T07:34:57.802Z,99519.41
2019-05-20T07:37:05.256Z,99517.91
2019-05-20T07:39:12.948Z,99513.72
2019-05-20T07:41:20.816Z,99514.53
2019-05-20T07:43:28.621Z,99510.68
2019-05-20T07:45:39.147Z,99500.88
2019-05-20T07:47:47.146Z,99504.81
2019-05-20T07:49:55.579Z,99505.04
2019-05-20T07:52:03.735Z,99513.64
2019-05-20T07:54:12.320Z,99504.06
2019-05-20T07:56:24.932Z,99507.59
2019-05-20T07:58:36.509Z,99506.11
2019-05-20T08:00:45.221Z,99493.64
2019-05-20T08:02:52.844Z,99506.33
2019-05-20T08:05:00.647Z,99495.95
2019-05-20T08:07:26.637Z,99495.12
2019-05-20T08:09:17.718Z,99495.67
2019-05-20T08:11:25.186Z,99504.84
2019-05-20T08:13:32.697Z,99498.69
2019-05-20T08:15:40.355Z,99504.66
2019-05-20T08:17:47.941Z,99505.83
2019-05-20T08:19:55.437Z,99503.13
2019-05-20T08:22:03.150Z,99513.55
2019-05-20T08:24:10.654Z,99510.22
2019-05-20T08:26:18.298Z,99503.98
2019-05-20T08:28:25.890Z,99501.75
2019-05-20T08:30:36.748Z,99500.66
2019-05-20T08:32:44.259Z,99513.20
2019-05-20T08:34:51.823Z,99515.16
2019-05-20T08:36:59.232Z,99510.41
2019-05-20T08:39:08.845Z,99523.63
2019-05-20T08:41:16.331Z,99523.53
2019-05-20T08:43:23.792Z,99522.17
2019-05-20T08:45:31.419Z,99510.51
2019-05-20T08:47:38.863Z,99519.25
2019-05-20T08:49:46.730Z,99525.70
2019-05-20T08:51:54.637Z,99521.78
2019-05-20T08:54:02.311Z,99516.62
2019-05-20T08:56:10.064Z,99506.76
2019-05-20T08:58:18.011Z,99506.44
2019-05-20T09:00:26.244Z,99501.06
2019-05-20T09:02:34.218Z,99500.96
2019-05-20T09:04:42.188Z,99511.40
2019-05-20T09:06:50.616Z,99508.80
2019-05-20T09:08:58.681Z,99503.14
2019-05-20T09:11:07.517Z,99499.41
2019-05-20T09:13:15.309Z,99501.27
2019-05-20T09:15:23.648Z,99495.52
2019-05-20T09:17:31.305Z,99501.81
2019-05-20T09:19:38.741Z,99499.23
2019-05-20T09:21:46.360Z,99496.35
2019-05-20T09:23:53.788Z,99501.68
2019-05-20T09:26:01.250Z,99499.34
2019-05-20T09:28:09.055Z,99494.86
2019-05-20T09:30:19.990Z,99509.17
2019-05-20T09:32:28.054Z,99511.00
2019-05-20T09:34:35.681Z,99507.59
2019-05-20T09:36:43.403Z,99516.67
2019-05-20T09:38:50.986Z,99512.23
2019-05-20T09:40:58.410Z,99516.98
2019-05-20T09:43:06.057Z,99524.59
2019-05-20T09:45:14.041Z,99509.97
2019-05-20T09:47:21.650Z,99518.33
2019-05-20T09:49:29.394Z,99516.84
2019-05-20T09:51:37.089Z,99523.30
2019-05-20T09:53:44.668Z,99526.17
2019-05-20T09:55:52.180Z,99534.72
2019-05-20T09:57:59.705Z,99537.22
2019-05-20T10:00:08.976Z,99543.87
2019-05-20T10:02:16.456Z,99546.63
2019-05-20T10:04:24.014Z,99545.30
2019-05-20T10:06:31.669Z,99545.44
2019-05-20T10:08:44.452Z,99547.42
2019-05-20T10:10:48.318Z,99545.80
2019-05-20T10:12:55.850Z,99552.05
2019-05-20T10:15:03.277Z,99559.66
2019-05-20T10:17:10.772Z,99549.48
2019-05-20T10:19:18.264Z,99558.91
2019-05-20T10:21:25.641Z,99553.16
2019-05-20T10:23:33.157Z,99556.47
2019-05-20T10:25:40.781Z,99560.10
2019-05-20T10:27:48.417Z,99562.24
2019-05-20T10:29:55.946Z,99566.98
2019-05-20T10:32:03.442Z,99563.94
2019-05-20T10:34:10.884Z,99564.66
2019-05-20T10:36:18.407Z,99570.36
2019-05-20T10:38:25.897Z,99567.06
2019-05-20T10:40:33.353Z,99570.20
2019-05-20T10:42:40.872Z,99553.50
2019-05-20T10:44:48.804Z,99564.79
2019-05-20T10:46:56.367Z,99569.66
2019-05-20T10:49:03.976Z,99555.11
2019-05-20T10:51:13.492Z,99561.57
2019-05-20T10:53:21.980Z,99560.11
2019-05-20T10:55:29.577Z,99563.86
2019-05-20T10:57:38.137Z,99569.35
2019-05-20T10:59:45.595Z,99569.42
2019-05-20T11:01:53.311Z,99568.83
2019-05-20T11:04:01.131Z,99563.12
2019-05-20T11:06:08.843Z,99558.43
2019-05-20T11:08:16.865Z,99555.97
2019-05-20T11:10:25.411Z,99555.88
2019-05-20T11:12:32.927Z,99551.96
2019-05-20T11:14:40.416Z,99565.07
2019-05-20T11:16:47.829Z,99563.31
2019-05-20T11:18:55.197Z,99541.87
2019-05-20T11:21:02.652Z,99546.84
2019-05-20T11:23:10.008Z,99552.00
2019-05-20T11:25:18.035Z,99546.13
2019-05-20T11:27:25.514Z,99548.11
2019-05-20T11:29:32.907Z,99550.78
2019-05-20T11:31:40.619Z,99557.35
2019-05-20T11:33:48.044Z,99556.91
2019-05-20T11:35:55.532Z,99561.25
2019-05-20T11:38:02.945Z,99549.27
2019-05-20T11:40:12.818Z,99541.48
2019-05-20T11:42:20.973Z,99553.20
2019-05-20T11:44:28.383Z,99556.56
2019-05-20T11:46:35.787Z,99557.17
2019-05-20T11:48:43.421Z,99559.30
2019-05-20T11:50:50.989Z,99561.91
2019-05-20T11:52:58.495Z,99564.67
2019-05-20T11:55:06.529Z,99561.69
2019-05-20T11:57:13.970Z,99557.31
2019-05-20T11:59:21.507Z,99562.14
2019-05-20T12:01:29.323Z,99565.18
2019-05-20T12:03:36.843Z,99570.80
2019-05-20T12:05:45.929Z,99574.22
2019-05-20T12:07:53.380Z,99583.66
2019-05-20T12:10:00.838Z,99598.83
2019-05-20T12:12:08.252Z,99595.52
2019-05-20T12:14:15.859Z,99591.83
2019-05-20T12:16:23.354Z,99592.88
2019-05-20T12:18:30.800Z,99590.09
2019-05-20T12:20:38.425Z,99588.23
2019-05-20T12:22:46.059Z,99595.98
2019-05-20T12:24:53.495Z,99586.22
2019-05-20T12:27:00.970Z,99579.73
2019-05-20T12:29:08.529Z,99574.84
2019-05-20T12:31:16.128Z,99567.16
2019-05-20T12:33:23.616Z,99564.47
2019-05-20T12:35:31.368Z,99565.53
2019-05-20T12:37:39.309Z,99569.55
2019-05-20T12:39:46.704Z,99571.58
2019-05-20T12:41:54.166Z,99571.58
2019-05-20T12:44:12.060Z,99569.61
2019-05-20T12:46:10.913Z,99572.98
2019-05-20T12:48:18.464Z,99566.27
2019-05-20T12:50:26.138Z,99555.69
2019-05-20T12:52:33.664Z,99552.85
2019-05-20T12:54:41.274Z,99562.62
2019-05-20T12:56:49.094Z,99567.53
2019-05-20T12:58:56.648Z,99566.75
2019-05-20T13:01:04.318Z,99555.03
2019-05-20T13:03:12.029Z,99548.48
2019-05-20T13:05:21.688Z,99546.72
2019-05-20T13:07:29.344Z,99548.72
2019-05-20T13:09:36.943Z,99548.21
2019-05-20T13:11:44.727Z,99540.34
2019-05-20T13:13:52.356Z,99545.40
2019-05-20T13:16:00.156Z,99547.08
2019-05-20T13:18:07.886Z,99552.80
2019-05-20T13:20:15.823Z,99560.48
2019-05-20T13:22:23.730Z,99565.16
2019-05-20T13:24:31.297Z,99566.45
2019-05-20T13:26:38.891Z,99579.49
2019-05-20T13:28:46.732Z,99577.05
2019-05-20T13:30:54.281Z,99568.17
2019-05-20T13:33:01.863Z,99558.58
2019-05-20T13:35:10.646Z,99550.77
2019-05-20T13:37:18.392Z,99548.06
2019-05-20T13:39:26.251Z,99542.83
2019-05-20T13:41:33.953Z,99546.75
2019-05-20T13:43:41.577Z,99539.37
2019-05-20T13:45:49.179Z,99537.67
2019-05-20T13:47:56.941Z,99540.40
2019-05-20T13:50:04.703Z,99534.50
2019-05-20T13:52:12.288Z,99545.06
2019-05-20T13:54:19.779Z,99538.29
2019-05-20T13:56:27.584Z,99543.37
2019-05-20T13:58:35.567Z,99542.89
2019-05-20T14:00:43.391Z,99532.25
2019-05-20T14:02:51.172Z,99544.05
2019-05-20T14:04:58.779Z,99538.35
2019-05-20T14:07:06.712Z,99536.58
2019-05-20T14:09:14.270Z,99529.27
2019-05-20T14:11:33.774Z,99527.98
2019-05-20T14:13:31.051Z,99522.19
2019-05-20T14:15:38.703Z,99527.97
2019-05-20T14:17:46.790Z,99515.16
2019-05-20T14:19:54.410Z,99523.41
2019-05-20T14:22:02.001Z,99518.14
2019-05-20T14:24:09.477Z,99519.82
2019-05-20T14:26:17.034Z,99525.70
2019-05-20T14:28:24.473Z,99523.47
2019-05-20T14:30:32.132Z,99533.99
2019-05-20T14:32:39.758Z,99532.87
2019-05-20T14:34:48.578Z,99529.84
2019-05-20T14:36:56.183Z,99524.70
2019-05-20T14:39:04.458Z,99514.98
2019-05-20T14:41:20.952Z,99518.44
2019-05-20T14:43:21.166Z,99515.89
2019-05-20T14:45:28.628Z,99513.83
2019-05-20T14:47:36.364Z,99520.75
2019-05-20T14:49:43.916Z,99525.52
2019-05-20T14:51:51.331Z,99524.47
2019-05-20T14:53:59.748Z,99518.52
2019-05-20T14:56:07.428Z,99507.94
2019-05-20T14:58:14.970Z,99506.94
2019-05-20T15:00:22.509Z,99513.16
2019-05-20T15:02:31.256Z,99509.58
2019-05-20T15:04:39.088Z,99505.41
2019-05-20T15:06:46.685Z,99505.84
2019-05-20T15:08:54.207Z,99492.63
2019-05-20T15:11:01.858Z,99485.57
2019-05-20T15:13:09.461Z,99480.54
2019-05-20T15:15:18.047Z,99478.16
2019-05-20T15:17:25.631Z,99486.02
2019-05-20T15:19:33.187Z,99477.16
2019-05-20T15:21:40.865Z,99475.37
2019-05-20T15:23:48.307Z,99468.86
2019-05-20T15:25:56.873Z,99464.23
2019-05-20T15:28:04.474Z,99466.17
2019-05-20T15:30:12.847Z,99456.81
2019-05-20T15:32:20.681Z,99449.80
2019-05-20T15:34:28.188Z,99462.59
2019-05-20T15:36:35.888Z,99451.56
2019-05-20T15:38:43.422Z,99446.92
2019-05-20T15:40:51.202Z,99450.53
2019-05-20T15:42:58.615Z,99445.22
2019-05-20T15:45:07.224Z,99454.47
2019-05-20T15:47:18.650Z,99453.97
2019-05-20T15:49:25.521Z,99451.98
2019-05-20T15:51:34.770Z,99452.19
2019-05-20T15:53:42.412Z,99443.50
2019-05-20T15:55:50.235Z,99442.23
2019-05-20T15:57:57.830Z,99440.20
2019-05-20T16:00:06.838Z,99447.44
2019-05-20T16:02:15.014Z,99436.82
2019-05-20T16:04:24.335Z,99434.34
2019-05-20T16:06:31.858Z,99432.10
2019-05-20T16:08:39.895Z,99438.03
2019-05-20T16:10:47.463Z,99438.20
2019-05-20T16:12:55.135Z,99440.41
2019-05-20T16:15:03.177Z,99451.98
2019-05-20T16:17:11.308Z,99466.94
2019-05-20T16:19:18.841Z,99467.52
2019-05-20T16:21:26.559Z,99478.87
2019-05-20T16:23:34.708Z,99485.16
2019-05-20T16:25:42.914Z,99491.29
2019-05-20T16:27:50.783Z,99495.59
2019-05-20T16:30:06.181Z,99501.16
2019-05-20T16:32:08.225Z,99503.19
2019-05-20T16:34:15.746Z,99514.66
2019-05-20T16:36:23.229Z,99521.23
2019-05-20T16:38:30.980Z,99527.16
2019-05-20T16:40:38.984Z,99539.77
2019-05-20T16:42:46.894Z,99542.63
2019-05-20T16:44:55.444Z,99554.39
2019-05-20T16:47:03.118Z,99561.45
2019-05-20T16:49:11.890Z,99562.12
2019-05-20T16:51:22.379Z,99570.17
2019-05-20T16:53:31.281Z,99579.38
2019-05-20T16:55:39.441Z,99582.37
2019-05-20T16:57:47.329Z,99582.70
2019-05-20T16:59:56.093Z,99585.52
2019-05-20T17:02:04.019Z,99580.45
2019-05-20T17:04:12.550Z,99582.63
2019-05-20T17:06:21.112Z,99585.36
2019-05-20T17:08:29.001Z,99573.94
2019-05-20T17:10:36.866Z,99576.70
2019-05-20T17:12:44.439Z,99584.74
2019-05-20T17:14:52.704Z,99581.33
2019-05-20T17:17:00.466Z,99589.31
2019-05-20T17:19:08.433Z,99596.23
2019-05-20T17:21:16.350Z,99581.82
2019-05-20T17:23:24.725Z,99596.52
2019-05-20T17:25:33.068Z,99592.87
2019-05-20T17:27:41.102Z,99582.91
2019-05-20T17:29:48.620Z,99583.05
2019-05-20T17:31:56.187Z,99580.41
2019-05-20T17:34:05.162Z,99580.95
2019-05-20T17:36:13.016Z,99566.58
2019-05-20T17:38:21.138Z,99559.87
2019-05-20T17:40:28.988Z,99546.55
2019-05-20T17:42:37.529Z,99523.74
2019-05-20T17:44:46.373Z,99518.37
2019-05-20T17:46:55.301Z,99508.88
2019-05-20T17:49:04.089Z,99501.05
2019-05-20T17:51:13.407Z,99498.66
2019-05-20T17:53:21.792Z,99498.44
2019-05-20T17:55:30.463Z,99499.92
2019-05-20T17:57:39.362Z,99504.94
2019-05-20T17:59:47.059Z,99506.78
2019-05-20T18:01:54.740Z,99503.92
2019-05-20T18:04:02.601Z,99505.91
2019-05-20T18:06:10.982Z,99512.05
2019-05-20T18:08:18.561Z,99507.75
2019-05-20T18:10:26.831Z,99513.05
2019-05-20T18:12:35.249Z,99514.05
2019-05-20T18:14:45.893Z,99515.49
2019-05-20T18:16:54.234Z,99514.30
2019-05-20T18:19:04.277Z,99521.33
2019-05-20T18:21:12.394Z,99521.44
2019-05-20T18:23:20.620Z,99525.39
2019-05-20T18:25:28.468Z,99522.77
2019-05-20T18:27:36.978Z,99514.89
2019-05-20T18:29:44.949Z,99510.07
2019-05-20T18:31:53.147Z,99503.86
2019-05-20T18:34:01.891Z,99502.06
2019-05-20T18:36:10.081Z,99500.16
2019-05-20T18:38:18.194Z,99526.41
2019-05-20T18:40:27.140Z,99540.50
2019-05-20T18:42:36.851Z,99539.48
2019-05-20T18:44:44.900Z,99513.84
2019-05-20T18:46:53.604Z,99514.12
2019-05-20T18:49:01.583Z,99538.41
2019-05-20T18:51:11.127Z,99552.59
2019-05-20T18:53:19.040Z,99553.01
2019-05-20T18:55:26.653Z,99567.31
2019-05-20T18:57:34.542Z,99584.24
2019-05-20T18:59:43.156Z,99593.48
2019-05-20T19:02:04.639Z,99602.87
2019-05-20T19:04:01.104Z,99612.84
2019-05-20T19:06:08.969Z,99618.19
2019-05-20T19:08:16.925Z,99622.05
2019-05-20T19:10:24.857Z,99622.34
2019-05-20T19:12:32.869Z,99627.30
2019-05-20T19:14:40.486Z,99624.71
2019-05-20T19:16:48.851Z,99623.47
2019-05-20T19:18:56.882Z,99624.95
2019-05-20T19:21:04.712Z,99625.86
2019-05-20T19:23:12.348Z,99619.13
2019-05-20T19:25:20.032Z,99622.05
2019-05-20T19:27:27.989Z,99630.19
2019-05-20T19:29:35.907Z,99615.33
2019-05-20T19:31:43.532Z,99623.83
2019-05-20T19:33:51.181Z,99618.13
2019-05-20T19:36:02.053Z,99605.69
2019-05-20T19:38:09.942Z,99617.58
2019-05-20T19:40:17.746Z,99609.88
2019-05-20T19:42:26.262Z,99607.85
2019-05-20T19:44:34.241Z,99611.22
2019-05-20T19:46:41.893Z,99609.49
2019-05-20T19:48:49.620Z,99601.62
2019-05-20T19:50:57.428Z,99593.38
2019-05-20T19:53:05.142Z,99591.69
2019-05-20T19:55:13.245Z,99595.59
2019-05-20T19:57:20.888Z,99593.62
2019-05-20T19:59:28.566Z,99590.78
2019-05-20T20:01:36.451Z,99588.61
2019-05-20T20:03:44.328Z,99585.12
2019-05-20T20:05:52.091Z,99591.08
2019-05-20T20:08:00.334Z,99584.00
2019-05-20T20:10:08.831Z,99580.94
2019-05-20T20:12:16.604Z,99579.54
2019-05-20T20:14:24.361Z,99574.02
2019-05-20T20:16:31.940Z,99588.43
2019-05-20T20:18:39.504Z,99584.80
2019-05-20T20:20:47.211Z,99594.50
2019-05-20T20:22:54.785Z,99591.83
2019-05-20T20:25:02.937Z,99595.77
2019-05-20T20:27:10.997Z,99594.27
2019-05-20T20:29:20.015Z,99591.60
2019-05-20T20:31:28.583Z,99594.63
2019-05-20T20:33:36.404Z,99586.91
2019-05-20T20:35:44.965Z,99587.77
2019-05-20T20:37:55.116Z,99593.80
2019-05-20T20:40:03.153Z,99592.41
2019-05-20T20:42:11.746Z,99589.59
2019-05-20T20:44:20.118Z,99578.95
2019-05-20T20:46:28.010Z,99578.17
2019-05-20T20:48:35.661Z,99575.81
2019-05-20T20:50:43.274Z,99571.74
2019-05-20T20:52:51.672Z,99562.77
2019-05-20T20:54:59.650Z,99562.42
2019-05-20T20:57:07.725Z,99559.48
2019-05-20T20:59:15.435Z,99564.25
2019-05-20T21:01:23.421Z,99555.36
2019-05-20T21:03:31.084Z,99562.91
2019-05-20T21:05:38.964Z,99567.46
2019-05-20T21:07:46.873Z,99567.46
2019-05-20T21:09:54.636Z,99569.16
2019-05-20T21:12:02.536Z,99570.12
2019-05-20T21:14:10.524Z,99577.41
2019-05-20T21:16:18.348Z,99578.41
2019-05-20T21:18:26.545Z,99583.30
2019-05-20T21:20:34.906Z,99581.90
2019-05-20T21:22:42.980Z,99586.39
2019-05-20T21:24:50.797Z,99595.65
2019-05-20T21:26:58.932Z,99592.70
2019-05-20T21:29:06.910Z,99601.95
2019-05-20T21:31:14.623Z,99610.27
2019-05-20T21:33:22.315Z,99613.34
2019-05-20T21:35:29.842Z,99609.56
2019-05-20T21:37:37.550Z,99614.26
2019-05-20T21:39:45.104Z,99616.59
2019-05-20T21:41:52.664Z,99609.23
2019-05-20T21:44:00.246Z,99613.14
2019-05-20T21:46:07.984Z,99615.23
2019-05-20T21:48:15.701Z,99616.97
2019-05-20T21:50:23.111Z,99611.73
2019-05-20T21:52:31.043Z,99613.69
2019-05-20T21:54:38.554Z,99612.02
2019-05-20T21:56:49.778Z,99602.71
2019-05-20T21:58:55.542Z,99604.58
2019-05-20T22:01:03.624Z,99614.73
2019-05-20T22:03:23.572Z,99606.09
2019-05-20T22:05:20.569Z,99606.66
2019-05-20T22:07:28.330Z,99606.88
2019-05-20T22:09:36.054Z,99609.12
2019-05-20T22:11:43.613Z,99605.76
2019-05-20T22:13:51.314Z,99601.73
2019-05-20T22:15:58.742Z,99605.59
2019-05-20T22:18:06.733Z,99599.44
2019-05-20T22:20:16.231Z,99594.86
2019-05-20T22:22:42.637Z,99598.73
2019-05-20T22:24:50.660Z,99598.60
2019-05-20T22:26:58.313Z,99594.41
2019-05-20T22:29:05.991Z,99590.54
2019-05-20T22:31:13.495Z,99602.84
2019-05-20T22:33:20.961Z,99606.66
2019-05-20T22:35:28.570Z,99610.41
2019-05-20T22:37:36.097Z,99606.13
2019-05-20T22:39:43.624Z,99607.12
2019-05-20T22:41:51.062Z,99602.34
2019-05-20T22:43:58.512Z,99605.08
2019-05-20T22:46:06.206Z,99611.72
2019-05-20T22:48:13.684Z,99621.74
2019-05-20T22:50:21.144Z,99611.81
2019-05-20T22:52:28.648Z,99603.47
2019-05-20T22:54:36.117Z,99604.70
2019-05-20T22:56:43.630Z,99604.17
2019-05-20T22:58:51.209Z,99601.40
2019-05-20T23:00:58.645Z,99600.97
2019-05-20T23:03:06.263Z,99595.59
2019-05-20T23:05:14.331Z,99593.93
2019-05-20T23:07:21.827Z,99587.30
2019-05-20T23:09:29.514Z,99584.25
2019-05-20T23:11:37.128Z,99580.64
2019-05-20T23:13:44.587Z,99585.66
2019-05-20T23:15:55.466Z,99587.97
2019-05-20T23:18:01.310Z,99589.89
2019-05-20T23:20:09.710Z,99593.79
2019-05-20T23:22:17.184Z,99593.12
2019-05-20T23:24:24.681Z,99599.41
2019-05-20T23:26:32.065Z,99597.83
2019-05-20T23:28:39.551Z,99591.00
2019-05-20T23:30:47.115Z,99591.34
2019-05-20T23:32:54.577Z,99596.81
2019-05-20T23:35:02.256Z,99603.70
2019-05-20T23:37:09.847Z,99595.80
2019-05-20T23:39:17.310Z,99593.57
2019-05-20T23:41:24.808Z,99585.51
2019-05-20T23:43:32.170Z,99584.36
2019-05-20T23:45:39.771Z,99574.78
2019-05-20T23:47:47.277Z,99578.75
2019-05-20T23:49:54.730Z,99581.84
2019-05-20T23:52:02.220Z,99589.50
2019-05-20T23:54:09.705Z,99580.72
2019-05-20T23:56:17.174Z,99581.31
2019-05-20T23:58:24.581Z,99588.66
